createdAt,value
2023-02-11T00:00:22.233Z,39.03
2023-02-11T00:02:48.879Z,38.77
2023-02-11T00:05:15.936Z,31.63
2023-02-11T00:07:42.645Z,32.67
2023-02-11T00:10:09.541Z,33.43
2023-02-11T00:12:37.562Z,39.67
2023-02-11T00:15:06.155Z,33.37
2023-02-11T00:17:32.867Z,34.10
2023-02-11T00:19:59.461Z,32.40
2023-02-11T00:22:26.323Z,35.13
2023-02-11T00:24:53.011Z,31.43
2023-02-11T00:27:19.701Z,31.03
2023-02-11T00:29:46.413Z,31.47
2023-02-11T00:32:13.086Z,32.87
2023-02-11T00:34:39.778Z,34.13
2023-02-11T00:37:06.802Z,32.47
2023-02-11T00:39:33.638Z,33.13
2023-02-11T00:42:00.466Z,38.47
2023-02-11T00:44:27.100Z,31.37
2023-02-11T00:46:53.722Z,29.87
2023-02-11T00:49:20.607Z,30.47
2023-02-11T00:51:48.535Z,36.67
2023-02-11T00:54:15.199Z,29.90
2023-02-11T00:56:42.074Z,31.50
2023-02-11T00:59:09.124Z,27.70
2023-02-11T01:01:35.948Z,26.50
2023-02-11T01:04:03.044Z,25.03
2023-02-11T01:06:29.741Z,28.97
2023-02-11T01:08:56.603Z,28.43
2023-02-11T01:11:23.313Z,27.90
2023-02-11T01:13:50.864Z,24.27
2023-02-11T01:16:19.385Z,23.80
2023-02-11T01:18:46.472Z,29.33
2023-02-11T01:21:13.241Z,35.37
2023-02-11T01:23:39.992Z,39.47
2023-02-11T01:26:06.773Z,37.80
2023-02-11T01:28:33.676Z,39.93
2023-02-11T01:31:02.241Z,39.97
2023-02-11T01:33:29.904Z,39.27
2023-02-11T01:36:00.922Z,41.63
2023-02-11T01:38:28.193Z,42.53
2023-02-11T01:41:03.218Z,39.60
2023-02-11T01:43:36.708Z,39.23
2023-02-11T01:46:35.035Z,42.73
2023-02-11T01:49:05.652Z,36.73
2023-02-11T01:51:59.824Z,40.03
2023-02-11T01:54:49.320Z,41.10
2023-02-11T01:57:22.807Z,40.83
2023-02-11T02:00:08.735Z,41.70
2023-02-11T02:02:50.411Z,40.13
2023-02-11T02:05:31.225Z,40.27
2023-02-11T02:08:29.721Z,44.03
2023-02-11T02:10:58.440Z,46.60
2023-02-11T02:13:25.954Z,46.50
2023-02-11T02:15:59.513Z,39.13
2023-02-11T02:18:54.256Z,32.87
2023-02-11T02:21:43.331Z,26.30
2023-02-11T02:24:31.503Z,22.70
2023-02-11T02:27:10.296Z,25.10
2023-02-11T02:29:49.082Z,27.73
2023-02-11T02:32:43.365Z,26.87
2023-02-11T02:35:15.037Z,26.20
2023-02-11T02:38:20.579Z,24.67
2023-02-11T02:40:53.492Z,22.73
2023-02-11T02:43:22.322Z,22.20
2023-02-11T02:45:49.266Z,23.67
2023-02-11T02:48:32.746Z,23.67
2023-02-11T02:51:25.288Z,22.23
2023-02-11T02:54:33.951Z,23.30
2023-02-11T02:57:25.503Z,24.67
2023-02-11T03:00:29.857Z,25.20
2023-02-11T03:03:13.184Z,26.57
2023-02-11T03:05:52.937Z,24.83
2023-02-11T03:08:42.938Z,24.93
2023-02-11T03:11:11.748Z,23.50
2023-02-11T03:13:40.507Z,26.73
2023-02-11T03:16:13.693Z,21.70
2023-02-11T03:18:44.748Z,21.13
2023-02-11T03:21:13.950Z,25.47
2023-02-11T03:23:48.128Z,22.27
2023-02-11T03:26:24.716Z,23.93
2023-02-11T03:29:12.503Z,20.03
2023-02-11T03:31:49.941Z,21.37
2023-02-11T03:34:29.852Z,20.97
2023-02-11T03:36:59.848Z,18.80
2023-02-11T03:39:33.025Z,20.90
2023-02-11T03:42:01.960Z,23.60
2023-02-11T03:44:35.560Z,22.23
2023-02-11T03:47:05.088Z,20.43
2023-02-11T03:49:33.355Z,20.97
2023-02-11T03:52:03.106Z,27.97
2023-02-11T03:54:30.805Z,29.77
2023-02-11T03:57:00.736Z,31.40
2023-02-11T03:59:28.180Z,33.60
2023-02-11T04:01:55.038Z,32.60
2023-02-11T04:04:21.959Z,33.73
2023-02-11T04:06:48.691Z,35.63
2023-02-11T04:09:16.395Z,32.70
2023-02-11T04:11:43.038Z,33.00
2023-02-11T04:14:09.623Z,31.07
2023-02-11T04:16:36.311Z,29.90
2023-02-11T04:19:03.209Z,30.80
2023-02-11T04:21:29.818Z,29.57
2023-02-11T04:23:56.446Z,29.10
2023-02-11T04:26:23.162Z,31.13
2023-02-11T04:28:49.787Z,30.73
2023-02-11T04:31:16.524Z,24.27
2023-02-11T04:33:43.206Z,23.00
2023-02-11T04:36:09.887Z,23.03
2023-02-11T04:38:36.513Z,19.33
2023-02-11T04:41:03.245Z,18.90
2023-02-11T04:43:29.975Z,19.00
2023-02-11T04:45:58.371Z,20.00
2023-02-11T04:48:25.570Z,19.93
2023-02-11T04:50:52.348Z,22.00
2023-02-11T04:53:19.026Z,21.37
2023-02-11T04:55:49.135Z,20.60
2023-02-11T04:58:16.717Z,27.07
2023-02-11T05:00:43.403Z,31.17
2023-02-11T05:03:10.134Z,31.57
2023-02-11T05:05:41.465Z,32.67
2023-02-11T05:08:11.033Z,32.23
2023-02-11T05:10:37.835Z,30.50
2023-02-11T05:13:04.890Z,31.60
2023-02-11T05:15:31.671Z,31.43
2023-02-11T05:17:58.551Z,35.03
2023-02-11T05:20:25.485Z,32.20
2023-02-11T05:22:52.537Z,31.23
2023-02-11T05:25:20.342Z,31.00
2023-02-11T05:27:46.948Z,31.47
2023-02-11T05:30:13.825Z,30.67
2023-02-11T05:32:40.572Z,24.97
2023-02-11T05:35:08.202Z,24.93
2023-02-11T05:37:35.226Z,29.07
2023-02-11T05:40:01.909Z,29.77
2023-02-11T05:42:28.557Z,30.83
2023-02-11T05:44:55.207Z,32.23
2023-02-11T05:47:21.802Z,27.13
2023-02-11T05:49:48.402Z,31.97
2023-02-11T05:52:15.092Z,30.63
2023-02-11T05:54:41.839Z,26.37
2023-02-11T05:57:08.581Z,25.67
2023-02-11T05:59:35.269Z,23.17
2023-02-11T06:02:02.324Z,23.70
2023-02-11T06:04:29.281Z,21.07
2023-02-11T06:06:56.829Z,21.73
2023-02-11T06:09:23.486Z,20.53
2023-02-11T06:11:50.115Z,20.97
2023-02-11T06:14:16.700Z,19.93
2023-02-11T06:16:43.393Z,20.03
2023-02-11T06:19:10.797Z,19.93
2023-02-11T06:21:43.983Z,22.17
2023-02-11T06:24:11.899Z,21.50
2023-02-11T06:26:38.580Z,20.33
2023-02-11T06:29:05.320Z,17.10
2023-02-11T06:31:32.096Z,20.87
2023-02-11T06:33:59.256Z,22.13
2023-02-11T06:36:25.931Z,20.17
2023-02-11T06:38:52.677Z,20.77
2023-02-11T06:41:22.643Z,19.90
2023-02-11T06:43:49.748Z,20.50
2023-02-11T06:46:16.431Z,21.00
2023-02-11T06:48:44.845Z,18.00
2023-02-11T06:51:13.318Z,22.00
2023-02-11T06:53:43.232Z,25.87
2023-02-11T06:56:12.561Z,26.70
2023-02-11T06:58:39.720Z,26.23
2023-02-11T07:01:08.984Z,27.33
2023-02-11T07:03:37.287Z,25.67
2023-02-11T07:06:05.948Z,29.93
2023-02-11T07:08:36.828Z,30.40
2023-02-11T07:11:16.305Z,29.87
2023-02-11T07:13:43.498Z,28.10
2023-02-11T07:16:14.086Z,28.93
2023-02-11T07:18:40.978Z,31.17
2023-02-11T07:21:09.362Z,28.23
2023-02-11T07:23:36.908Z,29.23
2023-02-11T07:26:08.918Z,25.80
2023-02-11T07:28:37.163Z,27.40
2023-02-11T07:31:12.122Z,19.60
2023-02-11T07:33:39.306Z,21.27
2023-02-11T07:36:08.504Z,25.30
2023-02-11T07:38:36.167Z,25.90
2023-02-11T07:41:09.265Z,30.37
2023-02-11T07:43:37.420Z,30.97
2023-02-11T07:46:05.859Z,30.20
2023-02-11T07:48:32.951Z,34.73
2023-02-11T07:51:11.775Z,31.63
2023-02-11T07:53:38.777Z,28.33
2023-02-11T07:56:06.961Z,29.33
2023-02-11T07:58:34.273Z,27.63
2023-02-11T08:01:06.066Z,25.57
2023-02-11T08:03:34.448Z,28.60
2023-02-11T08:06:09.624Z,36.27
2023-02-11T08:08:36.923Z,30.77
2023-02-11T08:11:08.203Z,27.63
2023-02-11T08:13:35.800Z,55.07
2023-02-11T08:16:05.117Z,26.33
2023-02-11T08:18:33.222Z,21.30
2023-02-11T08:21:07.513Z,21.30
2023-02-11T08:23:37.408Z,146.83
2023-02-11T08:26:05.469Z,22.23
2023-02-11T08:28:35.954Z,25.40
2023-02-11T08:31:11.429Z,21.90
2023-02-11T08:33:40.373Z,24.33
2023-02-11T08:36:12.051Z,26.40
2023-02-11T08:38:38.725Z,53.27
2023-02-11T08:41:05.513Z,22.77
2023-02-11T08:43:33.271Z,21.23
2023-02-11T08:46:02.153Z,25.87
2023-02-11T08:48:29.925Z,24.20
2023-02-11T08:50:57.282Z,22.53
2023-02-11T08:53:24.348Z,36.37
2023-02-11T08:55:53.948Z,19.80
2023-02-11T08:58:21.613Z,20.50
2023-02-11T09:00:49.917Z,21.10
2023-02-11T09:03:16.956Z,20.03
2023-02-11T09:05:49.809Z,20.57
2023-02-11T09:08:17.115Z,20.60
2023-02-11T09:10:43.979Z,20.23
2023-02-11T09:13:11.100Z,22.23
2023-02-11T09:15:37.726Z,24.37
2023-02-11T09:18:05.180Z,22.00
2023-02-11T09:20:32.129Z,22.23
2023-02-11T09:22:59.512Z,22.17
2023-02-11T09:25:26.649Z,24.80
2023-02-11T09:27:53.789Z,23.43
2023-02-11T09:30:21.093Z,20.60
2023-02-11T09:32:47.933Z,18.83
2023-02-11T09:35:14.618Z,25.50
2023-02-11T09:37:41.314Z,18.33
2023-02-11T09:40:08.674Z,23.03
2023-02-11T09:42:44.281Z,21.67
2023-02-11T09:45:24.313Z,19.13
2023-02-11T09:47:55.911Z,22.43
2023-02-11T09:50:29.400Z,22.40
2023-02-11T09:53:11.628Z,19.10
2023-02-11T09:55:46.038Z,20.80
2023-02-11T09:58:14.427Z,22.43
2023-02-11T10:00:50.259Z,20.43
2023-02-11T10:03:38.160Z,25.07
2023-02-11T10:06:38.188Z,20.83
2023-02-11T10:09:11.506Z,20.97
2023-02-11T10:12:09.158Z,21.83
2023-02-11T10:14:53.781Z,21.23
2023-02-11T10:17:37.751Z,22.77
2023-02-11T10:20:04.428Z,21.43
2023-02-11T10:22:37.588Z,21.97
2023-02-11T10:25:20.035Z,22.97
2023-02-11T10:27:47.671Z,23.10
2023-02-11T10:30:43.801Z,22.20
2023-02-11T10:33:43.101Z,21.37
2023-02-11T10:36:14.418Z,19.33
2023-02-11T10:38:41.168Z,23.13
2023-02-11T10:41:16.020Z,22.77
2023-02-11T10:43:43.524Z,20.87
2023-02-11T10:46:17.198Z,21.93
2023-02-11T10:48:52.697Z,22.07
2023-02-11T10:51:25.438Z,21.47
2023-02-11T10:54:04.161Z,22.30
2023-02-11T10:56:34.389Z,22.30
2023-02-11T10:59:05.163Z,22.67
2023-02-11T11:01:48.580Z,22.03
2023-02-11T11:04:30.446Z,23.73
2023-02-11T11:07:09.574Z,21.67
2023-02-11T11:09:59.636Z,23.60
2023-02-11T11:12:47.308Z,25.80
2023-02-11T11:15:32.974Z,24.10
2023-02-11T11:18:21.349Z,22.90
2023-02-11T11:21:01.323Z,21.17
2023-02-11T11:23:30.330Z,21.60
2023-02-11T11:26:05.124Z,22.67
2023-02-11T11:28:55.919Z,23.10
2023-02-11T11:31:30.462Z,19.77
2023-02-11T11:33:59.605Z,22.90
2023-02-11T11:36:36.044Z,23.87
2023-02-11T11:39:17.773Z,24.63
2023-02-11T11:41:57.833Z,26.13
2023-02-11T11:44:26.135Z,23.08
2023-02-11T11:47:11.049Z,18.63
2023-02-11T11:49:41.858Z,18.33
2023-02-11T11:52:48.921Z,18.27
2023-02-11T11:55:26.888Z,17.93
2023-02-11T11:57:53.740Z,18.23
2023-02-11T12:01:00.124Z,17.10
2023-02-11T12:03:42.062Z,18.33
2023-02-11T12:06:39.578Z,17.07
2023-02-11T12:09:16.082Z,17.10
2023-02-11T12:12:04.567Z,17.73
2023-02-11T12:14:39.351Z,18.70
2023-02-11T12:17:17.642Z,19.20
2023-02-11T12:19:56.326Z,19.55
2023-02-11T12:22:31.723Z,20.40
2023-02-11T12:25:09.938Z,19.15
2023-02-11T12:27:52.713Z,20.40
2023-02-11T12:30:28.716Z,21.35
2023-02-11T12:33:23.350Z,19.15
2023-02-11T12:35:55.813Z,21.97
2023-02-11T12:38:48.878Z,22.20
2023-02-11T12:42:03.682Z,22.80
2023-02-11T12:44:36.494Z,26.53
2023-02-11T12:47:13.027Z,29.33
2023-02-11T12:50:13.036Z,29.67
2023-02-11T12:52:57.809Z,29.57
2023-02-11T12:55:28.203Z,28.73
2023-02-11T12:57:59.359Z,30.10
2023-02-11T13:00:37.218Z,31.07
2023-02-11T13:03:09.827Z,29.80
2023-02-11T13:06:01.842Z,25.63
2023-02-11T13:08:34.738Z,27.23
2023-02-11T13:11:07.984Z,23.07
2023-02-11T13:13:46.216Z,26.70
2023-02-11T13:16:24.036Z,27.07
2023-02-11T13:18:55.770Z,27.30
2023-02-11T13:21:32.079Z,26.37
2023-02-11T13:24:13.450Z,29.37
2023-02-11T13:26:43.252Z,26.83
2023-02-11T13:29:30.073Z,26.60
2023-02-11T13:32:10.073Z,25.00
2023-02-11T13:34:43.008Z,26.30
2023-02-11T13:37:21.684Z,23.20
2023-02-11T13:40:04.870Z,21.63
2023-02-11T13:42:34.311Z,22.53
2023-02-11T13:45:01.499Z,19.17
2023-02-11T13:47:37.407Z,17.33
2023-02-11T13:50:07.310Z,18.27
2023-02-11T13:52:37.960Z,18.07
2023-02-11T13:55:21.574Z,17.67
2023-02-11T13:58:08.206Z,17.57
2023-02-11T14:00:34.855Z,15.73
2023-02-11T14:03:29.381Z,17.43
2023-02-11T14:06:27.116Z,18.03
2023-02-11T14:09:09.203Z,17.67
2023-02-11T14:11:56.187Z,16.70
2023-02-11T14:14:31.661Z,15.63
2023-02-11T14:17:01.550Z,15.73
2023-02-11T14:19:37.436Z,14.07
2023-02-11T14:22:05.028Z,15.60
2023-02-11T14:24:37.578Z,13.50
2023-02-11T14:27:21.345Z,13.03
2023-02-11T14:30:08.331Z,13.43
2023-02-11T14:33:00.633Z,12.27
2023-02-11T14:35:41.816Z,16.57
2023-02-11T14:38:59.427Z,14.83
2023-02-11T14:41:47.095Z,14.10
2023-02-11T14:44:25.183Z,16.80
2023-02-11T14:46:53.981Z,17.40
2023-02-11T14:49:33.613Z,15.17
2023-02-11T14:52:20.106Z,14.30
2023-02-11T14:54:50.995Z,15.17
2023-02-11T14:57:20.178Z,15.30
2023-02-11T15:00:21.076Z,13.67
2023-02-11T15:02:48.243Z,12.53
2023-02-11T15:05:29.011Z,15.43
2023-02-11T15:08:02.076Z,16.27
2023-02-11T15:10:49.274Z,12.53
2023-02-11T15:13:21.576Z,13.40
2023-02-11T15:15:52.314Z,13.23
2023-02-11T15:18:25.731Z,12.67
2023-02-11T15:20:53.141Z,13.90
2023-02-11T15:23:24.918Z,12.30
2023-02-11T15:25:55.818Z,14.83
2023-02-11T15:28:31.737Z,14.43
2023-02-11T15:31:04.557Z,14.10
2023-02-11T15:33:32.659Z,14.27
2023-02-11T15:36:01.782Z,15.37
2023-02-11T15:38:31.786Z,12.70
2023-02-11T15:41:02.022Z,12.83
2023-02-11T15:43:46.961Z,12.10
2023-02-11T15:46:18.716Z,11.13
2023-02-11T15:48:49.173Z,13.43
2023-02-11T15:51:37.922Z,12.43
2023-02-11T15:54:22.778Z,16.17
2023-02-11T15:56:52.456Z,13.00
2023-02-11T15:59:22.464Z,12.63
2023-02-11T16:01:49.834Z,12.93
2023-02-11T16:04:19.693Z,13.33
2023-02-11T16:06:50.549Z,12.67
2023-02-11T16:09:17.388Z,14.47
2023-02-11T16:11:47.264Z,13.27
2023-02-11T16:14:21.869Z,15.17
2023-02-11T16:16:51.814Z,14.43
2023-02-11T16:19:23.589Z,12.63
2023-02-11T16:21:53.553Z,11.53
2023-02-11T16:24:33.948Z,13.60
2023-02-11T16:27:03.690Z,11.93
2023-02-11T16:29:33.521Z,14.13
2023-02-11T16:32:09.097Z,44.37
2023-02-11T16:34:37.091Z,21.07
2023-02-11T16:37:05.579Z,17.00
2023-02-11T16:39:33.351Z,18.27
2023-02-11T16:42:01.310Z,14.37
2023-02-11T16:44:28.938Z,14.50
2023-02-11T16:46:59.181Z,16.17
2023-02-11T16:49:42.203Z,15.67
2023-02-11T16:52:14.329Z,14.43
2023-02-11T16:54:41.428Z,12.30
2023-02-11T16:57:20.797Z,14.87
2023-02-11T16:59:48.822Z,17.23
2023-02-11T17:02:16.976Z,17.70
2023-02-11T17:04:44.589Z,18.47
2023-02-11T17:07:11.944Z,16.40
2023-02-11T17:09:38.914Z,16.80
2023-02-11T17:12:06.154Z,26.23
2023-02-11T17:14:33.107Z,24.17
2023-02-11T17:17:00.121Z,17.40
2023-02-11T17:19:27.338Z,16.30
2023-02-11T17:21:54.196Z,15.30
2023-02-11T17:24:22.226Z,18.07
2023-02-11T17:26:49.603Z,20.13
2023-02-11T17:29:19.745Z,15.87
2023-02-11T17:31:46.830Z,16.23
2023-02-11T17:34:14.168Z,15.73
2023-02-11T17:36:43.880Z,17.77
2023-02-11T17:39:10.948Z,16.77
2023-02-11T17:41:38.853Z,17.60
2023-02-11T17:44:06.891Z,15.97
2023-02-11T17:46:36.815Z,15.37
2023-02-11T17:49:04.386Z,16.40
2023-02-11T17:51:34.016Z,16.70
2023-02-11T17:54:04.177Z,19.53
2023-02-11T17:56:36.316Z,20.43
2023-02-11T17:59:04.226Z,22.40
2023-02-11T18:01:32.815Z,31.77
2023-02-11T18:03:59.594Z,26.47
2023-02-11T18:06:26.893Z,24.37
2023-02-11T18:08:56.837Z,27.43
2023-02-11T18:11:25.863Z,34.17
2023-02-11T18:13:54.483Z,26.63
2023-02-11T18:16:22.208Z,21.23
2023-02-11T18:18:49.722Z,24.63
2023-02-11T18:21:19.633Z,23.70
2023-02-11T18:23:47.202Z,25.13
2023-02-11T18:26:15.529Z,41.33
2023-02-11T18:28:45.291Z,34.93
2023-02-11T18:31:12.550Z,35.03
2023-02-11T18:33:40.463Z,35.77
2023-02-11T18:36:10.853Z,34.90
2023-02-11T18:38:38.350Z,34.47
2023-02-11T18:41:05.386Z,32.10
2023-02-11T18:43:33.566Z,32.80
2023-02-11T18:46:01.901Z,32.83
2023-02-11T18:48:28.884Z,35.23
2023-02-11T18:50:55.738Z,33.20
2023-02-11T18:53:24.707Z,31.00
2023-02-11T18:55:52.622Z,30.77
2023-02-11T18:58:21.143Z,34.37
2023-02-11T19:00:49.206Z,40.30
2023-02-11T19:03:16.348Z,36.33
2023-02-11T19:05:45.797Z,33.00
2023-02-11T19:08:13.438Z,36.00
2023-02-11T19:10:45.213Z,34.63
2023-02-11T19:13:12.087Z,36.57
2023-02-11T19:15:43.047Z,37.33
2023-02-11T19:18:10.752Z,39.43
2023-02-11T19:20:42.331Z,35.07
2023-02-11T19:23:10.039Z,38.20
2023-02-11T19:25:37.314Z,37.90
2023-02-11T19:28:04.039Z,33.77
2023-02-11T19:30:30.854Z,35.80
2023-02-11T19:32:57.785Z,34.07
2023-02-11T19:35:25.732Z,39.37
2023-02-11T19:37:52.447Z,33.90
2023-02-11T19:40:21.150Z,37.97
2023-02-11T19:42:47.902Z,33.77
2023-02-11T19:45:14.689Z,37.57
2023-02-11T19:47:41.368Z,34.23
2023-02-11T19:50:08.850Z,34.70
2023-02-11T19:52:38.254Z,38.77
2023-02-11T19:55:05.281Z,39.60
2023-02-11T19:57:31.974Z,39.60
2023-02-11T19:59:58.787Z,35.53
2023-02-11T20:02:25.527Z,35.40
2023-02-11T20:04:52.258Z,38.80
2023-02-11T20:07:18.913Z,39.57
2023-02-11T20:09:45.555Z,38.40
2023-02-11T20:12:12.331Z,38.43
2023-02-11T20:14:39.005Z,35.33
2023-02-11T20:17:05.604Z,36.07
2023-02-11T20:19:32.322Z,38.93
2023-02-11T20:21:59.056Z,37.47
2023-02-11T20:24:26.035Z,34.73
2023-02-11T20:26:55.743Z,35.03
2023-02-11T20:29:23.648Z,36.93
2023-02-11T20:31:50.889Z,43.43
2023-02-11T20:34:18.171Z,39.17
2023-02-11T20:36:51.635Z,40.67
2023-02-11T20:39:19.224Z,41.63
2023-02-11T20:41:46.338Z,36.87
2023-02-11T20:44:13.505Z,42.07
2023-02-11T20:46:42.934Z,42.93
2023-02-11T20:49:21.405Z,38.77
2023-02-11T20:51:49.200Z,40.67
2023-02-11T20:54:18.386Z,42.07
2023-02-11T20:56:48.084Z,38.27
2023-02-11T20:59:16.587Z,40.57
2023-02-11T21:01:46.992Z,43.93
2023-02-11T21:04:20.989Z,39.57
2023-02-11T21:06:52.020Z,40.00
2023-02-11T21:09:21.461Z,44.63
2023-02-11T21:11:51.516Z,42.60
2023-02-11T21:14:19.392Z,38.67
2023-02-11T21:16:47.184Z,39.47
2023-02-11T21:19:14.622Z,41.10
2023-02-11T21:21:41.740Z,39.13
2023-02-11T21:24:09.653Z,43.03
2023-02-11T21:26:37.307Z,37.97
2023-02-11T21:29:05.719Z,40.33
2023-02-11T21:31:34.715Z,38.47
2023-02-11T21:34:01.521Z,41.00
2023-02-11T21:36:29.630Z,40.27
2023-02-11T21:38:56.823Z,41.23
2023-02-11T21:41:24.721Z,40.80
2023-02-11T21:43:52.251Z,41.70
2023-02-11T21:46:20.604Z,37.47
2023-02-11T21:48:48.059Z,46.40
2023-02-11T21:51:18.587Z,43.93
2023-02-11T21:53:45.879Z,43.03
2023-02-11T21:56:15.610Z,42.97
2023-02-11T21:58:43.048Z,45.87
2023-02-11T22:01:18.758Z,43.07
2023-02-11T22:03:46.408Z,43.70
2023-02-11T22:06:16.493Z,45.00
2023-02-11T22:08:43.376Z,45.07
2023-02-11T22:11:12.321Z,43.63
2023-02-11T22:13:40.364Z,46.03
2023-02-11T22:16:10.722Z,44.07
2023-02-11T22:18:38.439Z,42.37
2023-02-11T22:21:10.991Z,43.80
2023-02-11T22:23:39.058Z,43.00
2023-02-11T22:26:08.336Z,42.53
2023-02-11T22:28:36.996Z,47.07
2023-02-11T22:31:04.000Z,47.97
2023-02-11T22:33:31.060Z,45.90
2023-02-11T22:36:02.596Z,49.60
2023-02-11T22:38:31.125Z,44.67
2023-02-11T22:41:00.396Z,46.30
2023-02-11T22:43:28.090Z,48.70
2023-02-11T22:45:56.437Z,45.90
2023-02-11T22:48:23.366Z,46.40
2023-02-11T22:50:50.080Z,45.20
2023-02-11T22:53:16.807Z,45.27
2023-02-11T22:55:43.420Z,47.00
2023-02-11T22:58:10.073Z,45.13
2023-02-11T23:00:39.378Z,44.77
2023-02-11T23:03:07.814Z,41.10
2023-02-11T23:05:39.562Z,43.23
2023-02-11T23:08:08.673Z,42.87
2023-02-11T23:10:37.004Z,46.30
2023-02-11T23:13:04.645Z,40.53
2023-02-11T23:15:31.573Z,43.90
2023-02-11T23:17:59.070Z,45.83
2023-02-11T23:20:26.044Z,47.80
2023-02-11T23:22:52.746Z,44.53
2023-02-11T23:25:19.450Z,45.27
2023-02-11T23:27:46.143Z,46.97
2023-02-11T23:30:13.598Z,45.83
2023-02-11T23:32:40.802Z,45.70
2023-02-11T23:35:07.715Z,48.37
2023-02-11T23:37:34.452Z,43.33
2023-02-11T23:40:01.113Z,44.03
2023-02-11T23:42:29.064Z,43.73
2023-02-11T23:44:55.720Z,41.83
2023-02-11T23:47:22.320Z,38.70
2023-02-11T23:49:49.025Z,44.57
2023-02-11T23:52:15.718Z,45.57
2023-02-11T23:54:43.337Z,44.00
2023-02-11T23:57:10.083Z,48.17
2023-02-11T23:59:36.759Z,51.73
